Time;durP1;ratioP1;P1;durP2;ratioP2;P2;SDS_P1;SDS_P2;PMS_P1;PMS_P2;Temp;Humidity;BMP_temperature;BMP_pressure;BME280_temperature;BME280_humidity;BME280_pressure;Samples;Min_cycle;Max_cycle;Signal;HPM_P1;HPM_P2
2022/01/12 00:01:55;;;;;;;23.05;8.45;;;-1.70;99.90;;;;;;5041943;28;20028;-75
2022/01/12 00:04:30;;;;;;;19.98;7.57;;;-1.70;99.90;;;;;;5047171;28;20024;-78
2022/01/12 00:06:56;;;;;;;21.55;8.05;;;-1.70;99.90;;;;;;5047471;28;20021;-79
2022/01/12 00:09:22;;;;;;;18.13;7.65;;;-1.60;99.90;;;;;;5044282;28;20036;-79
2022/01/12 00:11:49;;;;;;;20.98;8.50;;;-1.60;99.90;;;;;;5050332;28;20386;-79
2022/01/12 00:14:14;;;;;;;21.00;8.15;;;-1.50;99.90;;;;;;5032543;28;20038;-77
2022/01/12 00:16:46;;;;;;;24.63;8.93;;;-1.60;99.90;;;;;;5035086;28;20052;-78
2022/01/12 00:19:11;;;;;;;23.02;8.75;;;-1.50;99.90;;;;;;5028424;28;20120;-78
2022/01/12 00:21:37;;;;;;;23.10;8.57;;;-1.50;99.90;;;;;;5033684;28;21893;-74
2022/01/12 00:24:03;;;;;;;23.60;8.90;;;-1.60;99.90;;;;;;5046263;28;20045;-77
2022/01/12 00:34:28;;;;;;;20.02;7.93;;;-1.60;99.90;;;;;;5049723;28;20027;-79
2022/01/12 00:36:54;;;;;;;22.20;8.60;;;-1.80;99.90;;;;;;5046125;28;20025;-79
2022/01/12 00:39:20;;;;;;;20.73;8.52;;;-1.90;99.90;;;;;;5043925;28;20036;-78
2022/01/12 00:41:47;;;;;;;22.65;9.18;;;-1.90;99.90;;;;;;5047546;28;20042;-78
2022/01/12 00:44:32;;;;;;;24.27;9.35;;;-1.80;99.90;;;;;;5020056;28;20033;-79
2022/01/12 00:46:58;;;;;;;22.58;8.80;;;-1.80;99.90;;;;;;5036358;28;20079;-80
2022/01/12 00:49:24;;;;;;;21.63;7.90;;;-1.80;99.90;;;;;;5026848;28;20549;-79
2022/01/12 00:51:54;;;;;;;21.10;8.80;;;-1.70;99.90;;;;;;5038668;28;20037;-78
2022/01/12 00:54:21;;;;;;;18.80;6.57;;;-1.70;99.90;;;;;;5017209;28;20030;-78
2022/01/12 00:56:47;;;;;;;27.15;8.90;;;-1.70;99.90;;;;;;5047636;28;20112;-80
2022/01/12 00:59:13;;;;;;;22.55;9.38;;;-1.80;99.90;;;;;;5050565;28;20103;-80
2022/01/12 01:01:39;;;;;;;21.88;8.43;;;-1.90;99.90;;;;;;5032171;28;20063;-73
2022/01/12 01:04:05;;;;;;;20.45;8.57;;;-2.00;99.90;;;;;;5036871;28;20474;-77
2022/01/12 01:06:32;;;;;;;19.77;7.93;;;-2.00;99.90;;;;;;5044083;28;20057;-80
2022/01/12 01:08:58;;;;;;;24.58;8.88;;;-2.00;99.90;;;;;;5048217;28;20112;-80
2022/01/12 01:11:24;;;;;;;24.70;8.63;;;-2.10;99.90;;;;;;5036906;28;20746;-79
2022/01/12 01:16:43;;;;;;;20.88;8.50;;;-2.10;99.90;;;;;;5041722;28;20036;-80
2022/01/12 01:27:22;;;;;;;18.70;7.63;;;-2.30;99.90;;;;;;5041340;28;20043;-77
2022/01/12 01:29:49;;;;;;;19.98;7.95;;;-2.30;99.90;;;;;;5048507;28;20581;-79
2022/01/12 01:32:14;;;;;;;22.38;8.82;;;-2.40;99.90;;;;;;5044682;28;20028;-80
2022/01/12 01:34:45;;;;;;;23.02;8.73;;;-2.40;99.90;;;;;;5037842;28;20043;-72
2022/01/12 01:37:12;;;;;;;22.02;8.48;;;-2.40;99.90;;;;;;5038241;28;20025;-80
2022/01/12 01:39:38;;;;;;;20.27;8.07;;;-2.40;99.90;;;;;;5044915;28;20056;-80
2022/01/12 01:42:14;;;;;;;22.15;8.75;;;-2.40;99.90;;;;;;5019901;28;20034;-79
2022/01/12 01:55:22;;;;;;;22.05;8.65;;;-2.40;99.90;;;;;;5036128;28;21444;-78
2022/01/12 01:57:48;;;;;;;25.17;8.57;;;-2.50;99.90;;;;;;5042291;28;20048;-78
2022/01/12 02:00:17;;;;;;;20.80;8.63;;;-2.50;99.90;;;;;;5024261;28;20388;-78
2022/01/12 02:02:45;;;;;;;21.67;8.82;;;-2.50;99.90;;;;;;5034849;28;20095;-71
2022/01/12 02:05:11;;;;;;;23.02;8.68;;;-2.50;99.90;;;;;;5044135;28;20056;-79
2022/01/12 02:07:36;;;;;;;22.98;8.75;;;-2.50;99.90;;;;;;5043635;28;20068;-78
2022/01/12 02:10:04;;;;;;;21.73;9.18;;;-2.50;99.90;;;;;;5037750;28;20083;-78
2022/01/12 02:12:30;;;;;;;24.35;9.00;;;-2.60;99.90;;;;;;5035388;28;20465;-79
2022/01/12 02:14:58;;;;;;;22.73;8.93;;;-2.60;99.90;;;;;;5020348;28;20045;-75
2022/01/12 02:17:30;;;;;;;23.98;8.75;;;-2.60;99.90;;;;;;5041773;28;20036;-77
2022/01/12 02:20:31;;;;;;;22.88;9.00;;;-2.50;99.90;;;;;;5024200;28;20029;-74
2022/01/12 02:37:00;;;;;;;25.85;9.80;;;-2.80;99.90;;;;;;5044829;28;20032;-80
2022/01/12 02:42:11;;;;;;;24.10;8.77;;;-2.70;99.90;;;;;;5042530;28;20525;-80
2022/01/12 02:55:33;;;;;;;28.20;9.77;;;-2.80;99.90;;;;;;5040986;28;20039;-78
2022/01/12 02:57:59;;;;;;;28.50;10.38;;;-2.80;99.90;;;;;;5035478;28;20037;-78
2022/01/12 03:00:35;;;;;;;27.73;10.50;;;-2.80;99.90;;;;;;5020572;28;20029;-77
2022/01/12 03:03:03;;;;;;;28.95;9.95;;;-2.70;99.90;;;;;;5038687;28;20063;-80
2022/01/12 03:05:45;;;;;;;29.45;9.98;;;-2.70;99.90;;;;;;5049747;28;20060;-78
2022/01/12 03:08:15;;;;;;;26.73;9.77;;;-2.70;99.90;;;;;;5018845;28;20394;-78
2022/01/12 03:10:41;;;;;;;29.00;10.50;;;-2.80;99.90;;;;;;5044966;28;20021;-79
2022/01/12 03:13:07;;;;;;;24.70;9.52;;;-2.90;99.90;;;;;;5048830;28;20035;-79
2022/01/12 03:15:39;;;;;;;30.45;10.18;;;-3.00;99.90;;;;;;5049530;28;20042;-77
2022/01/12 03:18:06;;;;;;;26.17;9.90;;;-3.00;99.90;;;;;;5050666;28;20130;-79
2022/01/12 03:20:32;;;;;;;20.05;8.82;;;-3.10;99.90;;;;;;5044641;28;20710;-80
2022/01/12 03:22:58;;;;;;;23.13;8.93;;;-3.00;99.90;;;;;;5032413;28;20120;-79
2022/01/12 03:25:24;;;;;;;21.92;8.93;;;-3.10;99.90;;;;;;5045111;28;20035;-80
2022/01/12 03:27:50;;;;;;;24.63;9.20;;;-3.10;99.90;;;;;;5018281;28;20036;-76
2022/01/12 03:30:16;;;;;;;26.17;9.77;;;-3.10;99.90;;;;;;5051661;28;20511;-78
2022/01/12 03:32:47;;;;;;;28.55;9.40;;;-3.10;99.90;;;;;;5051730;28;20033;-78
2022/01/12 03:35:35;;;;;;;27.33;10.48;;;-3.10;99.90;;;;;;5048942;28;20029;-79
2022/01/12 03:38:20;;;;;;;28.50;9.45;;;-3.10;99.90;;;;;;5043240;28;20029;-77
2022/01/12 03:40:49;;;;;;;25.65;10.02;;;-3.00;99.90;;;;;;5039503;28;20029;-72
2022/01/12 03:43:16;;;;;;;28.60;10.05;;;-3.00;99.90;;;;;;5051092;28;20048;-80
2022/01/12 03:45:43;;;;;;;27.70;10.25;;;-3.00;99.90;;;;;;5051179;28;20057;-79
2022/01/12 03:48:08;;;;;;;22.83;9.30;;;-3.00;99.90;;;;;;5027158;28;20021;-80
2022/01/12 03:50:34;;;;;;;27.85;10.00;;;-2.90;99.90;;;;;;5039995;28;20152;-80
2022/01/12 03:53:00;;;;;;;29.50;10.75;;;-2.90;99.90;;;;;;5014091;28;20021;-76
2022/01/12 03:55:25;;;;;;;32.78;10.43;;;-2.80;99.90;;;;;;5044826;28;20025;-78
2022/01/12 03:57:51;;;;;;;25.85;10.13;;;-2.70;99.90;;;;;;5036595;28;20033;-74
2022/01/12 04:00:17;;;;;;;33.53;10.55;;;-2.70;99.90;;;;;;5033658;28;20057;-80
2022/01/12 04:02:42;;;;;;;30.40;10.57;;;-2.80;99.90;;;;;;5047244;28;20048;-79
2022/01/12 04:10:36;;;;;;;22.27;8.82;;;-2.70;99.90;;;;;;5036958;28;20040;-79
2022/01/12 04:13:02;;;;;;;27.55;10.45;;;-2.60;99.90;;;;;;5044164;28;20025;-80
2022/01/12 04:15:28;;;;;;;27.48;10.40;;;-2.60;99.90;;;;;;5050633;28;20037;-77
2022/01/12 04:17:54;;;;;;;26.95;10.43;;;-2.70;99.90;;;;;;5050045;28;20390;-78
2022/01/12 04:20:20;;;;;;;30.75;10.25;;;-2.80;99.90;;;;;;5049607;28;20039;-77
2022/01/12 04:25:30;;;;;;;27.88;10.27;;;-2.80;99.90;;;;;;5045900;28;20036;-76
2022/01/12 04:27:55;;;;;;;31.02;11.52;;;-2.70;99.90;;;;;;5050282;28;20033;-80
2022/01/12 04:30:21;;;;;;;27.45;10.10;;;-2.50;99.90;;;;;;5050164;28;20024;-78
2022/01/12 04:32:47;;;;;;;28.38;10.48;;;-2.60;99.90;;;;;;5045579;28;20033;-78
2022/01/12 04:35:16;;;;;;;34.60;12.93;;;-2.80;99.90;;;;;;5037686;28;20079;-75
2022/01/12 04:37:42;;;;;;;34.88;11.98;;;-2.80;99.90;;;;;;5038852;28;20484;-76
2022/01/12 04:40:08;;;;;;;31.85;11.32;;;-2.80;99.90;;;;;;5044501;28;20112;-75
2022/01/12 04:42:35;;;;;;;46.42;16.63;;;-2.70;99.90;;;;;;5037899;28;20068;-75
2022/01/12 04:45:18;;;;;;;41.55;16.50;;;-2.60;99.90;;;;;;5038259;28;20039;-75
2022/01/12 04:48:09;;;;;;;33.60;12.60;;;-2.50;99.90;;;;;;5041666;28;20029;-76
2022/01/12 04:50:35;;;;;;;28.73;10.30;;;-2.40;99.90;;;;;;5038851;28;20021;-76
2022/01/12 04:53:01;;;;;;;32.53;11.77;;;-2.40;99.90;;;;;;5035544;28;20045;-75
2022/01/12 04:55:27;;;;;;;31.67;11.35;;;-2.30;99.90;;;;;;5042923;28;20071;-75
2022/01/12 04:57:53;;;;;;;37.05;12.55;;;-2.30;99.90;;;;;;5043260;28;20087;-73
2022/01/12 05:00:19;;;;;;;39.13;12.65;;;-2.30;99.90;;;;;;5041112;28;20024;-76
2022/01/12 05:08:38;;;;;;;35.47;12.02;;;-2.10;99.90;;;;;;5048328;28;20492;-79
2022/01/12 05:13:51;;;;;;;31.48;12.00;;;-2.10;99.90;;;;;;5045820;28;20092;-78
2022/01/12 05:16:18;;;;;;;34.80;12.50;;;-2.10;99.90;;;;;;5037953;28;20037;-78
2022/01/12 05:18:45;;;;;;;32.85;12.55;;;-2.10;99.90;;;;;;5047140;28;20068;-81
2022/01/12 05:21:12;;;;;;;41.92;13.52;;;-2.10;99.90;;;;;;5022924;28;20058;-76
2022/01/12 05:23:38;;;;;;;43.75;13.35;;;-2.00;99.90;;;;;;5044276;28;20496;-76
2022/01/12 05:26:04;;;;;;;33.58;11.65;;;-2.00;99.90;;;;;;5038429;28;20040;-77
2022/01/12 05:28:31;;;;;;;37.55;14.23;;;-1.90;99.90;;;;;;5041145;28;20061;-77
2022/01/12 05:30:57;;;;;;;39.67;13.73;;;-1.90;99.90;;;;;;5043065;28;20033;-71
2022/01/12 05:33:24;;;;;;;35.97;12.98;;;-1.90;99.90;;;;;;5041558;28;20540;-77
2022/01/12 05:35:55;;;;;;;30.35;11.90;;;-1.80;99.90;;;;;;5040393;28;20398;-80
2022/01/12 05:38:25;;;;;;;26.33;10.10;;;-1.80;99.90;;;;;;5043095;28;20107;-77
2022/01/12 05:40:55;;;;;;;26.25;11.18;;;-1.80;99.90;;;;;;5039775;28;20033;-79
2022/01/12 05:43:25;;;;;;;28.98;11.05;;;-1.90;99.90;;;;;;5035200;28;20489;-72
2022/01/12 05:45:53;;;;;;;31.53;10.67;;;-2.00;99.90;;;;;;5034763;28;20033;-84
2022/01/12 05:50:49;;;;;;;28.10;11.30;;;-1.90;99.90;;;;;;5039127;28;20055;-73
2022/01/12 05:53:17;;;;;;;25.90;10.70;;;-1.90;99.90;;;;;;5034286;28;20031;-79
2022/01/12 05:55:43;;;;;;;29.77;11.05;;;-1.90;99.90;;;;;;5049753;28;20037;-78
2022/01/12 05:58:09;;;;;;;30.70;12.15;;;-1.90;99.90;;;;;;5042466;28;20147;-79
2022/01/12 06:00:35;;;;;;;32.45;12.10;;;-1.90;99.90;;;;;;5040098;28;20119;-78
2022/01/12 06:03:01;;;;;;;29.20;11.05;;;-1.90;99.90;;;;;;5030611;28;20403;-76
2022/01/12 06:05:28;;;;;;;31.35;11.45;;;-1.90;99.90;;;;;;5048299;28;20123;-73
2022/01/12 06:07:54;;;;;;;30.77;10.40;;;-1.90;99.90;;;;;;5044795;28;20030;-74
2022/01/12 06:10:24;;;;;;;30.77;11.10;;;-2.00;99.90;;;;;;5044844;28;20017;-74
2022/01/12 06:12:51;;;;;;;27.10;11.20;;;-2.00;99.90;;;;;;5048739;28;20139;-73
2022/01/12 06:15:17;;;;;;;28.95;11.18;;;-1.90;99.90;;;;;;5028814;28;20132;-75
2022/01/12 06:17:42;;;;;;;29.73;10.93;;;-2.00;99.90;;;;;;5048845;28;20195;-73
2022/01/12 06:20:08;;;;;;;32.20;10.93;;;-2.00;99.90;;;;;;5029659;28;20036;-75
2022/01/12 06:22:35;;;;;;;28.23;10.80;;;-2.00;99.90;;;;;;5048690;28;20041;-74
2022/01/12 06:25:02;;;;;;;30.42;11.30;;;-2.00;99.90;;;;;;5010483;28;20031;-75
2022/01/12 06:27:30;;;;;;;29.23;11.50;;;-2.00;99.90;;;;;;5033214;28;20445;-77
2022/01/12 06:32:40;;;;;;;30.60;10.60;;;-2.00;99.90;;;;;;5034967;28;20040;-74
2022/01/12 06:35:06;;;;;;;27.00;10.48;;;-2.00;99.90;;;;;;5048069;28;20396;-77
2022/01/12 06:37:32;;;;;;;28.73;10.75;;;-2.00;99.90;;;;;;5047473;28;20033;-78
2022/01/12 06:39:58;;;;;;;26.73;10.65;;;-1.90;99.90;;;;;;5048363;28;20465;-73
2022/01/12 06:42:25;;;;;;;29.50;10.55;;;-1.90;99.90;;;;;;5037032;28;20485;-74
2022/01/12 06:44:51;;;;;;;24.92;10.50;;;-1.90;99.90;;;;;;5030966;28;20064;-80
2022/01/12 06:47:19;;;;;;;25.13;9.73;;;-1.90;99.90;;;;;;5038255;28;20025;-83
2022/01/12 06:49:45;;;;;;;29.00;10.75;;;-1.90;99.90;;;;;;5042204;28;20079;-76
2022/01/12 06:52:10;;;;;;;26.45;11.60;;;-1.90;99.90;;;;;;5047954;28;20033;-78
2022/01/12 06:54:36;;;;;;;29.05;10.43;;;-1.90;99.90;;;;;;5030551;28;20025;-76
2022/01/12 06:57:02;;;;;;;26.88;10.07;;;-1.90;99.90;;;;;;5045395;28;20029;-74
2022/01/12 06:59:28;;;;;;;26.63;9.88;;;-2.00;99.90;;;;;;5032449;28;20132;-74
2022/01/12 07:01:53;;;;;;;26.83;10.10;;;-2.00;99.90;;;;;;5028885;28;20041;-74
2022/01/12 07:04:20;;;;;;;27.50;9.95;;;-2.00;99.90;;;;;;5029832;28;20641;-75
2022/01/12 07:06:46;;;;;;;26.55;10.50;;;-2.00;99.90;;;;;;5033639;28;20812;-78
2022/01/12 07:09:11;;;;;;;29.55;10.00;;;-2.10;99.90;;;;;;5047608;28;20484;-79
2022/01/12 07:11:38;;;;;;;25.23;10.07;;;-2.00;99.90;;;;;;5044423;28;20029;-76
2022/01/12 07:14:03;;;;;;;27.48;10.95;;;-2.00;99.90;;;;;;5045250;28;20080;-77
2022/01/12 07:16:29;;;;;;;30.33;10.45;;;-2.10;99.90;;;;;;5039901;28;20087;-79
2022/01/12 07:18:59;;;;;;;26.70;10.13;;;-2.10;99.90;;;;;;5045607;28;20454;-78
2022/01/12 07:21:28;;;;;;;26.00;9.63;;;-2.10;99.90;;;;;;5047506;28;20115;-72
2022/01/12 07:23:55;;;;;;;26.63;9.20;;;-2.10;99.90;;;;;;5047564;28;20099;-75
2022/01/12 07:26:22;;;;;;;23.45;9.10;;;-2.10;99.90;;;;;;5043472;28;20066;-79
2022/01/12 07:28:48;;;;;;;25.67;9.15;;;-2.10;99.90;;;;;;5047288;28;20033;-73
2022/01/12 07:31:14;;;;;;;22.50;9.00;;;-2.20;99.90;;;;;;5047150;28;20154;-74
2022/01/12 07:33:40;;;;;;;21.58;8.65;;;-2.20;99.90;;;;;;5046854;28;20458;-77
2022/01/12 07:36:05;;;;;;;24.95;9.60;;;-2.20;99.90;;;;;;5029077;28;20037;-75
2022/01/12 07:38:31;;;;;;;28.65;10.10;;;-2.10;99.90;;;;;;5038264;28;20478;-78
2022/01/12 07:40:57;;;;;;;25.05;9.90;;;-2.10;99.90;;;;;;5037693;28;20108;-79
2022/01/12 07:43:23;;;;;;;24.10;9.80;;;-2.00;99.90;;;;;;5047002;28;20634;-74
2022/01/12 07:45:49;;;;;;;26.05;10.32;;;-2.00;99.90;;;;;;5048052;28;20531;-79
2022/01/12 07:48:14;;;;;;;26.00;9.38;;;-2.00;99.90;;;;;;5047106;28;20146;-75
2022/01/12 07:50:41;;;;;;;25.35;9.57;;;-1.90;99.90;;;;;;5046659;28;20712;-78
2022/01/12 07:53:07;;;;;;;24.15;9.20;;;-1.90;99.90;;;;;;5031491;28;20029;-76
2022/01/12 07:55:32;;;;;;;25.83;9.98;;;-1.90;99.90;;;;;;5049937;28;20786;-77
2022/01/12 07:57:59;;;;;;;27.77;10.35;;;-1.90;99.90;;;;;;5046613;28;20033;-76
2022/01/12 08:00:25;;;;;;;29.70;11.05;;;-1.90;99.90;;;;;;5049795;28;20218;-76
2022/01/12 08:02:50;;;;;;;30.67;10.80;;;-1.90;99.90;;;;;;5042035;28;20470;-79
2022/01/12 08:05:17;;;;;;;30.83;11.20;;;-1.90;99.90;;;;;;5023808;28;20155;-79
2022/01/12 08:07:43;;;;;;;27.35;10.70;;;-1.90;99.90;;;;;;5051250;28;20025;-75
2022/01/12 08:10:10;;;;;;;31.25;10.88;;;-1.90;99.90;;;;;;5050767;28;20083;-74
2022/01/12 08:12:37;;;;;;;29.30;11.52;;;-1.90;99.90;;;;;;5033618;28;20389;-73
2022/01/12 08:15:05;;;;;;;29.80;11.80;;;-2.00;99.90;;;;;;5046464;28;20179;-74
2022/01/12 08:17:32;;;;;;;32.95;12.27;;;-1.90;99.90;;;;;;5032873;28;20124;-75
2022/01/12 08:19:58;;;;;;;28.15;10.50;;;-1.90;99.90;;;;;;5033437;28;20033;-79
2022/01/12 08:22:24;;;;;;;29.63;12.18;;;-1.80;99.90;;;;;;5030961;28;20089;-74
2022/01/12 08:24:49;;;;;;;26.77;10.25;;;-1.70;99.90;;;;;;5035663;28;20438;-76
2022/01/12 08:27:15;;;;;;;28.30;10.48;;;-1.80;99.90;;;;;;5031348;28;20029;-73
2022/01/12 08:29:41;;;;;;;27.35;10.00;;;-1.90;99.90;;;;;;5038187;28;20113;-73
2022/01/12 08:32:07;;;;;;;27.17;10.13;;;-1.80;99.90;;;;;;5032142;28;20466;-74
2022/01/12 08:34:33;;;;;;;26.55;10.23;;;-1.80;99.90;;;;;;5046156;28;20047;-78
2022/01/12 08:36:59;;;;;;;29.73;10.65;;;-1.80;99.90;;;;;;5048507;28;20049;-74
2022/01/12 08:39:25;;;;;;;29.50;10.82;;;-1.70;99.90;;;;;;5047647;28;20171;-76
2022/01/12 08:41:50;;;;;;;28.55;10.55;;;-1.60;99.90;;;;;;5035024;28;20068;-79
2022/01/12 08:44:16;;;;;;;35.53;12.68;;;-1.60;99.90;;;;;;5040184;28;20115;-79
2022/01/12 08:46:42;;;;;;;33.55;13.23;;;-1.50;99.90;;;;;;5050948;28;20031;-75
2022/01/12 08:49:08;;;;;;;29.55;12.10;;;-1.40;99.90;;;;;;5021547;28;20154;-74
2022/01/12 08:51:35;;;;;;;26.20;10.85;;;-1.30;99.90;;;;;;5040002;28;20028;-76
2022/01/12 08:54:01;;;;;;;27.95;10.98;;;-1.20;99.90;;;;;;5050520;28;20044;-74
2022/01/12 08:56:27;;;;;;;29.52;11.85;;;-1.20;99.90;;;;;;5049855;28;20029;-80
2022/01/12 08:58:53;;;;;;;23.80;10.20;;;-1.20;99.90;;;;;;5036505;28;20029;-76
2022/01/12 09:01:19;;;;;;;25.65;10.20;;;-1.20;99.90;;;;;;5045879;28;20040;-78
2022/01/12 09:03:45;;;;;;;27.88;10.25;;;-1.20;99.90;;;;;;5047890;28;20083;-77
2022/01/12 09:06:11;;;;;;;27.92;10.80;;;-1.30;99.90;;;;;;5030549;28;20033;-78
2022/01/12 09:08:38;;;;;;;28.58;11.63;;;-1.30;99.90;;;;;;5045231;28;20039;-77
2022/01/12 09:11:05;;;;;;;25.17;10.38;;;-1.30;99.90;;;;;;5050397;28;20025;-77
2022/01/12 09:13:30;;;;;;;27.20;10.30;;;-1.20;99.90;;;;;;5026559;28;20533;-79
2022/01/12 09:15:56;;;;;;;29.48;11.57;;;-1.20;99.90;;;;;;5048922;28;20063;-78
2022/01/12 09:18:22;;;;;;;30.45;10.52;;;-1.20;99.90;;;;;;5046644;28;20057;-78
2022/01/12 09:20:49;;;;;;;33.92;11.35;;;-1.20;99.90;;;;;;5045801;28;20051;-80
2022/01/12 09:23:15;;;;;;;27.70;10.55;;;-1.20;99.90;;;;;;5042407;28;20037;-77
2022/01/12 09:25:41;;;;;;;29.30;10.95;;;-0.90;99.90;;;;;;5037468;28;20109;-79
2022/01/12 09:28:08;;;;;;;26.50;11.23;;;-0.90;99.90;;;;;;5043529;28;20105;-70
2022/01/12 09:30:36;;;;;;;29.52;10.90;;;-0.80;99.90;;;;;;5032755;28;20045;-77
2022/01/12 09:33:02;;;;;;;29.83;11.60;;;-0.80;99.90;;;;;;5049848;28;20431;-79
2022/01/12 09:35:29;;;;;;;26.60;10.10;;;-0.70;99.90;;;;;;5035570;28;20022;-78
2022/01/12 09:37:55;;;;;;;27.13;10.73;;;-0.70;99.90;;;;;;5030758;28;20460;-78
2022/01/12 09:40:21;;;;;;;32.08;11.00;;;-0.70;99.90;;;;;;5029825;28;20036;-78
2022/01/12 09:42:48;;;;;;;27.58;10.77;;;-0.70;99.90;;;;;;5039989;28;20120;-77
2022/01/12 09:45:17;;;;;;;29.23;11.27;;;-0.70;99.90;;;;;;5030318;28;20029;-84
2022/01/12 09:47:49;;;;;;;31.20;11.18;;;-0.70;99.90;;;;;;5029884;28;20541;-76
2022/01/12 09:50:21;;;;;;;26.67;10.15;;;-0.70;99.90;;;;;;5040236;28;20444;-76
2022/01/12 09:52:47;;;;;;;32.28;10.80;;;-0.60;99.90;;;;;;5049695;28;20113;-77
2022/01/12 09:55:13;;;;;;;25.55;10.32;;;-0.60;99.90;;;;;;5048409;28;20131;-76
2022/01/12 09:57:39;;;;;;;28.25;10.40;;;-0.50;99.90;;;;;;5030257;28;20665;-75
2022/01/12 10:00:06;;;;;;;24.92;9.98;;;-0.50;99.90;;;;;;5047084;28;20032;-77
2022/01/12 10:02:32;;;;;;;29.50;11.00;;;-0.60;99.90;;;;;;5022041;28;20071;-79
2022/01/12 10:05:05;;;;;;;30.38;10.93;;;-0.40;99.90;;;;;;5017501;28;20061;-78
2022/01/12 10:07:31;;;;;;;27.70;10.38;;;-0.30;99.90;;;;;;5043646;28;20528;-78
2022/01/12 10:10:04;;;;;;;28.13;11.27;;;-0.20;99.90;;;;;;5038391;28;20037;-78
2022/01/12 10:12:30;;;;;;;26.65;10.18;;;-0.30;99.90;;;;;;5044267;28;20486;-75
2022/01/12 10:15:00;;;;;;;33.38;12.57;;;-0.30;99.90;;;;;;5047992;28;20091;-77
2022/01/12 10:17:44;;;;;;;28.98;11.13;;;-0.30;99.90;;;;;;5047246;28;20021;-77
2022/01/12 10:20:12;;;;;;;27.30;11.63;;;-0.10;99.90;;;;;;5039507;28;20040;-74
2022/01/12 10:22:40;;;;;;;30.58;11.18;;;0.10;99.90;;;;;;5033085;28;20112;-77
2022/01/12 10:25:16;;;;;;;27.08;10.48;;;0.20;99.90;;;;;;5039281;28;20064;-74
2022/01/12 10:27:41;;;;;;;25.58;10.23;;;0.20;99.90;;;;;;5048771;28;20463;-75
2022/01/12 10:30:08;;;;;;;25.23;10.30;;;0.20;99.90;;;;;;5047401;28;20096;-75
2022/01/12 10:32:33;;;;;;;27.02;11.07;;;0.10;99.90;;;;;;5007220;28;20039;-76
2022/01/12 10:35:00;;;;;;;25.40;9.70;;;0.10;99.90;;;;;;5047043;28;20048;-74
2022/01/12 10:37:26;;;;;;;25.73;10.43;;;0.00;99.90;;;;;;5048576;28;20706;-76
2022/01/12 10:39:54;;;;;;;25.80;10.52;;;-0.10;99.90;;;;;;5048474;28;20116;-77
2022/01/12 10:42:21;;;;;;;23.08;9.75;;;0.00;99.90;;;;;;5043494;28;20034;-76
2022/01/12 10:44:49;;;;;;;23.60;9.82;;;0.00;99.90;;;;;;5038708;28;20389;-76
2022/01/12 10:47:20;;;;;;;26.05;10.23;;;0.00;99.90;;;;;;5046347;28;20032;-77
2022/01/12 10:49:55;;;;;;;26.95;10.18;;;0.00;99.90;;;;;;5040007;28;20051;-78
2022/01/12 10:52:23;;;;;;;24.83;10.45;;;0.00;99.90;;;;;;5042293;28;20033;-74
2022/01/12 10:54:58;;;;;;;25.15;10.55;;;-0.10;99.90;;;;;;5041760;28;20044;-73
2022/01/12 10:57:30;;;;;;;25.98;9.73;;;0.00;99.90;;;;;;5040499;28;20036;-77
2022/01/12 11:00:00;;;;;;;28.55;10.60;;;0.00;99.90;;;;;;5030763;28;20042;-77
2022/01/12 11:02:28;;;;;;;24.77;9.65;;;0.00;99.90;;;;;;5043713;28;20441;-76
2022/01/12 11:04:55;;;;;;;25.15;9.68;;;0.00;99.90;;;;;;5044837;28;20112;-73
2022/01/12 11:07:23;;;;;;;25.52;11.13;;;0.00;99.90;;;;;;5034232;28;20030;-71
2022/01/12 11:09:50;;;;;;;25.02;10.32;;;0.00;99.90;;;;;;5023009;28;20032;-73
2022/01/12 11:12:16;;;;;;;25.52;10.73;;;0.00;99.90;;;;;;5043426;28;20045;-73
2022/01/12 11:14:42;;;;;;;25.95;10.82;;;0.00;99.90;;;;;;5035808;28;20053;-73
2022/01/12 11:17:07;;;;;;;26.73;10.77;;;0.00;99.90;;;;;;5025728;28;20021;-74
2022/01/12 11:19:34;;;;;;;26.60;11.60;;;0.00;99.90;;;;;;5029323;28;20602;-73
2022/01/12 11:22:13;;;;;;;28.73;12.07;;;0.20;99.90;;;;;;5028915;28;20036;-74
2022/01/12 11:24:38;;;;;;;31.75;12.45;;;0.20;99.90;;;;;;5034595;28;20041;-74
2022/01/12 11:27:06;;;;;;;27.58;11.70;;;0.10;99.90;;;;;;5030708;28;20052;-74
2022/01/12 11:29:34;;;;;;;27.75;11.48;;;0.00;99.90;;;;;;5038468;28;20442;-74
2022/01/12 11:32:08;;;;;;;26.42;10.65;;;-0.20;99.90;;;;;;5028880;28;20484;-78
2022/01/12 11:34:34;;;;;;;25.08;11.30;;;-0.30;99.90;;;;;;5051328;28;20087;-79
2022/01/12 11:37:14;;;;;;;27.80;11.55;;;-0.30;99.90;;;;;;5049702;28;20072;-76
2022/01/12 11:39:40;;;;;;;31.02;11.70;;;-0.30;99.90;;;;;;5051521;28;20044;-77
2022/01/12 11:42:06;;;;;;;32.83;12.20;;;-0.50;99.90;;;;;;5045408;28;20033;-79
2022/01/12 11:44:35;;;;;;;29.60;11.63;;;-0.50;99.90;;;;;;5035136;28;20045;-79
2022/01/12 11:47:03;;;;;;;27.83;10.40;;;-0.40;99.90;;;;;;5040928;28;20029;-78
2022/01/12 11:49:43;;;;;;;27.08;11.52;;;-0.50;99.90;;;;;;5035821;28;20026;-76
2022/01/12 11:52:13;;;;;;;38.33;14.23;;;-0.40;99.90;;;;;;5051929;28;20032;-77
2022/01/12 11:54:43;;;;;;;32.45;13.07;;;-0.40;99.90;;;;;;5040330;28;20044;-78
2022/01/12 11:57:11;;;;;;;31.05;11.95;;;-0.40;99.90;;;;;;5043057;28;20039;-79
2022/01/12 12:00:01;;;;;;;31.85;11.85;;;-0.50;99.90;;;;;;5042375;28;20026;-79
2022/01/12 12:02:38;;;;;;;32.10;12.43;;;-0.60;99.90;;;;;;5026486;28;20029;-80
2022/01/12 12:05:10;;;;;;;32.28;11.80;;;-0.70;99.90;;;;;;5042894;28;20117;-78
2022/01/12 12:08:05;;;;;;;31.92;12.48;;;-0.70;99.90;;;;;;5038885;28;20104;-79
2022/01/12 12:10:35;;;;;;;30.92;11.73;;;-0.50;99.90;;;;;;5031457;28;20064;-78
2022/01/12 12:13:02;;;;;;;31.80;12.23;;;-0.40;99.90;;;;;;5031637;28;20171;-79
2022/01/12 12:15:28;;;;;;;31.20;12.05;;;-0.10;99.90;;;;;;5045790;28;20303;-78
2022/01/12 12:17:58;;;;;;;30.70;12.77;;;0.20;99.90;;;;;;5042613;28;20032;-78
2022/01/12 12:20:25;;;;;;;29.30;11.98;;;0.50;99.90;;;;;;5051005;28;20080;-78
2022/01/12 12:22:51;;;;;;;30.17;12.80;;;0.90;99.90;;;;;;5048599;28;20041;-76
2022/01/12 12:25:20;;;;;;;31.98;12.52;;;1.40;99.90;;;;;;5050682;28;20029;-73
2022/01/12 12:28:00;;;;;;;32.65;13.18;;;1.60;99.90;;;;;;5035877;28;20037;-78
2022/01/12 12:30:28;;;;;;;25.92;10.75;;;1.90;99.90;;;;;;5049640;28;20024;-75
2022/01/12 12:32:56;;;;;;;28.30;11.88;;;1.60;99.90;;;;;;5034637;28;20375;-78
2022/01/12 12:35:30;;;;;;;27.13;11.52;;;1.80;99.90;;;;;;5030298;28;20102;-77
2022/01/12 12:37:59;;;;;;;31.63;12.07;;;1.70;99.90;;;;;;5050096;28;20029;-76
2022/01/12 12:40:33;;;;;;;24.52;10.32;;;1.80;99.90;;;;;;5048137;28;20446;-77
2022/01/12 12:43:18;;;;;;;27.70;10.82;;;2.10;99.90;;;;;;5050692;28;20037;-76
2022/01/12 12:45:48;;;;;;;30.13;12.10;;;2.10;99.90;;;;;;5045268;28;20039;-77
2022/01/12 12:48:17;;;;;;;26.63;10.73;;;2.40;99.90;;;;;;5050155;28;20029;-78
2022/01/12 12:50:44;;;;;;;25.10;11.35;;;2.40;99.90;;;;;;5048885;28;20044;-78
2022/01/12 12:53:10;;;;;;;25.00;11.00;;;2.50;99.90;;;;;;5050626;28;20036;-79
2022/01/12 12:55:42;;;;;;;25.52;11.32;;;2.80;99.90;;;;;;5049441;28;20940;-78
2022/01/12 12:58:08;;;;;;;29.70;11.23;;;2.90;99.90;;;;;;5050600;28;20033;-77
2022/01/12 13:00:36;;;;;;;27.85;11.55;;;2.40;99.90;;;;;;5047704;28;20103;-78
2022/01/12 13:03:04;;;;;;;30.27;12.73;;;2.50;99.90;;;;;;5033973;28;20083;-78
2022/01/12 13:05:35;;;;;;;33.67;12.05;;;2.70;99.90;;;;;;5045745;28;20098;-75
2022/01/12 13:08:01;;;;;;;41.75;15.05;;;2.60;99.90;;;;;;5049691;28;20116;-77
2022/01/12 13:10:29;;;;;;;38.28;15.25;;;2.70;99.90;;;;;;5047326;28;20036;-78
2022/01/12 13:12:58;;;;;;;31.92;13.55;;;2.40;99.90;;;;;;5050439;28;20551;-75
2022/01/12 13:15:34;;;;;;;33.70;13.05;;;2.60;99.90;;;;;;5047181;28;20115;-77
2022/01/12 13:18:05;;;;;;;55.47;17.35;;;2.70;99.90;;;;;;5050298;28;20044;-79
2022/01/12 13:23:21;;;;;;;35.53;12.38;;;2.70;99.90;;;;;;5032182;28;19968;-74
2022/01/12 13:25:48;;;;;;;28.10;11.32;;;2.40;99.90;;;;;;5030294;28;20026;-79
2022/01/12 13:28:16;;;;;;;31.83;12.57;;;2.30;99.90;;;;;;5044479;28;20029;-80
2022/01/12 13:31:12;;;;;;;30.00;11.77;;;2.40;99.90;;;;;;5048194;28;20487;-76
2022/01/12 13:33:47;;;;;;;30.95;11.35;;;2.30;99.90;;;;;;5024475;28;20870;-80
2022/01/12 13:36:23;;;;;;;31.10;12.10;;;2.60;99.90;;;;;;5048564;28;20466;-80
2022/01/12 13:39:03;;;;;;;24.35;10.43;;;3.10;99.90;;;;;;5040486;28;20116;-78
2022/01/12 13:41:32;;;;;;;29.48;11.85;;;2.90;99.90;;;;;;5029503;28;20108;-77
2022/01/12 13:44:16;;;;;;;35.83;14.80;;;2.80;99.90;;;;;;5029925;28;20470;-77
2022/01/12 13:47:00;;;;;;;32.05;12.60;;;2.60;99.90;;;;;;5047344;28;20041;-79
2022/01/12 13:49:26;;;;;;;34.33;13.52;;;2.40;99.90;;;;;;5042495;28;20017;-78
2022/01/12 13:52:07;;;;;;;34.70;12.93;;;2.50;99.90;;;;;;5043242;28;20458;-76
2022/01/12 13:54:36;;;;;;;;;;;2.50;99.90;;;;;;5031145;28;20148;-76
2022/01/12 13:57:03;;;;;;;25.95;11.35;;;2.60;99.90;;;;;;5040892;28;19940;-83
2022/01/12 13:59:30;;;;;;;23.90;11.02;;;2.80;99.90;;;;;;5037632;28;20139;-80
2022/01/12 14:01:59;;;;;;;26.17;10.68;;;3.00;99.90;;;;;;5017074;28;20390;-79